Map

Track Data

SID SEASON NUMBER BASIN SUBBASIN NAME ISO_TIME NATURE LAT LON WMO_WIND WMO_PRES WMO_AGENCY TRACK_TYPE DIST2LAND LANDFALL IFLAG USA_AGENCY USA_ATCF_ID USA_LAT USA_LON USA_RECORD USA_STATUS USA_WIND USA_PRES USA_SSHS USA_R34_NE USA_R34_SE USA_R34_SW USA_R34_NW USA_R50_NE USA_R50_SE USA_R50_SW USA_R50_NW USA_R64_NE USA_R64_SE USA_R64_SW USA_R64_NW USA_POCI USA_ROCI USA_RMW USA_EYE TOKYO_LAT TOKYO_LON TOKYO_GRADE TOKYO_WIND TOKYO_PRES TOKYO_R50_DIR TOKYO_R50_LONG TOKYO_R50_SHORT TOKYO_R30_DIR TOKYO_R30_LONG TOKYO_R30_SHORT TOKYO_LAND CMA_LAT CMA_LON CMA_CAT CMA_WIND CMA_PRES HKO_LAT HKO_LON HKO_CAT HKO_WIND HKO_PRES NEWDELHI_LAT NEWDELHI_LON NEWDELHI_GRADE NEWDELHI_WIND NEWDELHI_PRES NEWDELHI_CI NEWDELHI_DP NEWDELHI_POCI REUNION_LAT REUNION_LON REUNION_TYPE REUNION_WIND REUNION_PRES REUNION_TNUM REUNION_CI REUNION_RMW REUNION_R34_NE REUNION_R34_SE REUNION_R34_SW REUNION_R34_NW REUNION_R50_NE REUNION_R50_SE REUNION_R50_SW REUNION_R50_NW REUNION_R64_NE REUNION_R64_SE REUNION_R64_SW REUNION_R64_NW BOM_LAT BOM_LON BOM_TYPE BOM_WIND BOM_PRES BOM_TNUM BOM_CI BOM_RMW BOM_R34_NE BOM_R34_SE BOM_R34_SW BOM_R34_NW BOM_R50_NE BOM_R50_SE BOM_R50_SW BOM_R50_NW BOM_R64_NE BOM_R64_SE BOM_R64_SW BOM_R64_NW BOM_ROCI BOM_POCI BOM_EYE BOM_POS_METHOD BOM_PRES_METHOD NADI_LAT NADI_LON NADI_CAT NADI_WIND NADI_PRES WELLINGTON_LAT WELLINGTON_LON WELLINGTON_WIND WELLINGTON_PRES DS824_LAT DS824_LON DS824_STAGE DS824_WIND DS824_PRES TD9636_LAT TD9636_LON TD9636_STAGE TD9636_WIND TD9636_PRES TD9635_LAT TD9635_LON TD9635_WIND TD9635_PRES TD9635_ROCI NEUMANN_LAT NEUMANN_LON NEUMANN_CLASS NEUMANN_WIND NEUMANN_PRES MLC_LAT MLC_LON MLC_CLASS MLC_WIND MLC_PRES USA_GUST BOM_GUST BOM_GUST_PER REUNION_GUST REUNION_GUST_PER USA_SEAHGT USA_SEARAD_NE USA_SEARAD_SE USA_SEARAD_SW USA_SEARAD_NW STORM_SPEED STORM_DIR
1937231N18114 1937 32 WP MM NOT_NAMED 1937-08-19 10:00:00 NR 17.6000 114.200 main 404 404 __________O___ -1 17.6000 114.200 2 1 0
1937231N18114 1937 32 WP MM NOT_NAMED 1937-08-19 12:00:00 NR 17.6483 114.191 main 404 398 __________P___ -1 17.6483 114.191 2 2 346
1937231N18114 1937 32 WP MM NOT_NAMED 1937-08-19 15:00:00 NR 17.7276 114.169 main 398 383 __________P___ -1 17.7276 114.169 2 2 338
1937231N18114 1937 32 WP MM NOT_NAMED 1937-08-19 18:00:00 NR 17.8246 114.123 main 383 362 __________P___ -1 17.8246 114.123 2 3 330
1937231N18114 1937 32 WP MM NOT_NAMED 1937-08-19 21:00:00 NR 17.9500 114.039 main 362 362 __________P___ -1 17.9500 114.039 2 3 325
1937231N18114 1937 32 WP MM NOT_NAMED 1937-08-19 22:00:00 NR 18.0000 114.000 main 362 348 __________O___ -1 18.0000 114.000 2 4 321
1937231N18114 1937 32 WP MM NOT_NAMED 1937-08-20 00:00:00 NR 18.1132 113.904 main 348 319 __________P___ -1 18.1132 113.904 2 5 319
1937231N18114 1937 32 WP MM NOT_NAMED 1937-08-20 03:00:00 NR 18.3082 113.721 main 319 290 __________P___ -1 18.3082 113.721 2 6 317
1937231N18114 1937 32 WP MM NOT_NAMED 1937-08-20 06:00:00 NR 18.5196 113.507 main 290 261 __________P___ -1 18.5196 113.507 2 6 315
1937231N18114 1937 32 WP MM NOT_NAMED 1937-08-20 09:00:00 NR 18.7318 113.277 main 261 247 __________P___ -1 18.7318 113.277 2 6 314
1937231N18114 1937 32 WP MM NOT_NAMED 1937-08-20 10:00:00 NR 18.8000 113.200 main 247 233 __________O___ -1 18.8000 113.200 2 6 314
1937231N18114 1937 32 WP MM NOT_NAMED 1937-08-20 12:00:00 NR 18.9328 113.058 main 233 196 __________P___ -1 18.9328 113.058 2 6 314
1937231N18114 1937 32 WP MM NOT_NAMED 1937-08-20 15:00:00 NR 19.1260 112.840 main 196 171 __________P___ -1 19.1260 112.840 2 6 311
1937231N18114 1937 32 WP MM NOT_NAMED 1937-08-20 18:00:00 NR 19.3036 112.613 main 171 147 __________P___ -1 19.3036 112.613 2 5 307
1937231N18114 1937 32 WP MM NOT_NAMED 1937-08-20 21:00:00 NR 19.4563 112.380 main 147 136 __________P___ -1 19.4563 112.380 2 5 303
1937231N18114 1937 32 WP MM NOT_NAMED 1937-08-20 22:00:00 NR 19.5000 112.300 main 136 115 __________O___ -1 19.5000 112.300 2 5 298
1937231N18114 1937 32 WP MM NOT_NAMED 1937-08-21 00:00:00 NR 19.5754 112.142 main 115 94 __________P___ -1 19.5754 112.142 2 5 293
1937231N18114 1937 32 WP MM NOT_NAMED 1937-08-21 03:00:00 NR 19.6633 111.898 main 94 63 __________P___ -1 19.6633 111.898 2 5 288
1937231N18114 1937 32 WP MM NOT_NAMED 1937-08-21 06:00:00 NR 19.7295 111.646 main 63 47 __________P___ -1 19.7295 111.646 2 5 284
1937231N18114 1937 32 WP MM NOT_NAMED 1937-08-21 09:00:00 NR 19.7832 111.388 main 47 38 __________P___ -1 19.7832 111.388 2 5 282
1937231N18114 1937 32 WP MM NOT_NAMED 1937-08-21 10:00:00 NR 19.8000 111.300 main 38 20 __________O___ -1 19.8000 111.300 2 5 281
1937231N18114 1937 32 WP MM NOT_NAMED 1937-08-21 12:00:00 NR 19.8312 111.112 main 20 0 __________P___ -1 19.8312 111.112 2 5 279
1937231N18114 1937 32 WP MM NOT_NAMED 1937-08-21 15:00:00 NR 19.8716 110.823 main 0 0 __________P___ -1 19.8716 110.823 2 5 279
1937231N18114 1937 32 WP MM NOT_NAMED 1937-08-21 18:00:00 NR 19.9152 110.540 main 0 0 __________P___ -1 19.9152 110.540 2 5 281
1937231N18114 1937 32 WP MM NOT_NAMED 1937-08-21 21:00:00 NR 19.9745 110.279 main 0 0 __________P___ -1 19.9745 110.279 2 5 285
1937231N18114 1937 32 WP MM NOT_NAMED 1937-08-21 22:00:00 NR 20.0000 110.200 main 0 0 __________O___ -1 20.0000 110.200 2 5 294
1937231N18114 1937 32 WP MM NOT_NAMED 1937-08-22 00:00:00 NR 20.0660 110.060 main 11 0 __________P___ -1 20.0660 110.060 2 4 301
1937231N18114 1937 32 WP MM NOT_NAMED 1937-08-22 03:00:00 NR 20.1841 109.876 main 0 0 __________P___ -1 20.1841 109.876 2 4 307
1937231N18114 1937 32 WP MM NOT_NAMED 1937-08-22 06:00:00 NR 20.3168 109.712 main 20 15 __________P___ -1 20.3168 109.712 2 4 312
1937231N18114 1937 32 WP MM NOT_NAMED 1937-08-22 09:00:00 NR 20.4546 109.553 main 20 31 __________P___ -1 20.4546 109.553 2 4 313
1937231N18114 1937 32 WP MM NOT_NAMED 1937-08-22 10:00:00 NR 20.5000 109.500 main 31 31 __________O___ -1 20.5000 109.500 2 4 312
1937231N18114 1937 32 WP MM NOT_NAMED 1937-08-22 12:00:00 NR 20.5885 109.390 main 38 38 __________P___ -1 20.5885 109.390 2 4 309
1937231N18114 1937 32 WP MM NOT_NAMED 1937-08-22 15:00:00 NR 20.7163 109.219 main 53 51 __________P___ -1 20.7163 109.219 2 4 308
1937231N18114 1937 32 WP MM NOT_NAMED 1937-08-22 18:00:00 NR 20.8395 109.041 main 70 54 __________P___ -1 20.8395 109.041 2 4 306
1937231N18114 1937 32 WP MM NOT_NAMED 1937-08-22 21:00:00 NR 20.9601 108.861 main 54 54 __________P___ -1 20.9601 108.861 2 4 306
1937231N18114 1937 32 WP MM NOT_NAMED 1937-08-22 22:00:00 NR 21.0000 108.800 main 60 __________O___ -1 21.0000 108.800 2 4 306

Digital Typhoon Data and Search

About IBTrACS Database

This database is a web-friendly format of International Best Track Archive for Climate Stewardship (IBTrACS), a global best track data archive curated by NOAA dating back to 1842.

Updated: 2021-12-06